sensor_id;sensor_type;location;lat;lon;timestamp;pressure;altitude;pressure_sealevel;temperature;humidity
25526;BME280;13424;48.424;11.258;2022-07-29T00:01:01;95531.97;;;20.69;86.83
25526;BME280;13424;48.424;11.258;2022-07-29T00:03:26;95525.00;;;20.54;86.35
25526;BME280;13424;48.424;11.258;2022-07-29T00:05:52;95536.19;;;20.75;85.98
25526;BME280;13424;48.424;11.258;2022-07-29T00:08:19;95527.25;;;20.75;85.87
25526;BME280;13424;48.424;11.258;2022-07-29T00:10:57;95521.56;;;20.62;86.32
25526;BME280;13424;48.424;11.258;2022-07-29T00:13:23;95506.84;;;20.55;86.87
25526;BME280;13424;48.424;11.258;2022-07-29T00:15:49;95499.19;;;20.57;86.71
25526;BME280;13424;48.424;11.258;2022-07-29T00:18:15;95497.22;;;20.49;86.93
25526;BME280;13424;48.424;11.258;2022-07-29T00:20:41;95493.06;;;20.38;87.16
25526;BME280;13424;48.424;11.258;2022-07-29T00:23:07;95500.47;;;20.73;85.98
25526;BME280;13424;48.424;11.258;2022-07-29T00:25:33;95504.94;;;20.55;86.16
25526;BME280;13424;48.424;11.258;2022-07-29T00:27:59;95506.78;;;20.69;85.81
25526;BME280;13424;48.424;11.258;2022-07-29T00:30:25;95501.69;;;20.67;87.55
25526;BME280;13424;48.424;11.258;2022-07-29T00:32:51;95493.63;;;20.76;85.54
25526;BME280;13424;48.424;11.258;2022-07-29T00:35:17;95484.38;;;20.99;85.11
25526;BME280;13424;48.424;11.258;2022-07-29T00:38:01;95481.63;;;20.90;85.62
25526;BME280;13424;48.424;11.258;2022-07-29T00:40:27;95484.75;;;21.06;84.23
25526;BME280;13424;48.424;11.258;2022-07-29T00:43:22;95486.25;;;20.90;85.88
25526;BME280;13424;48.424;11.258;2022-07-29T00:45:47;95495.72;;;21.01;85.26
25526;BME280;13424;48.424;11.258;2022-07-29T00:48:13;95499.91;;;20.85;86.37
25526;BME280;13424;48.424;11.258;2022-07-29T00:50:39;95493.44;;;20.72;86.03
25526;BME280;13424;48.424;11.258;2022-07-29T00:53:07;95486.75;;;20.56;87.37
25526;BME280;13424;48.424;11.258;2022-07-29T00:55:34;95492.69;;;20.44;88.21
25526;BME280;13424;48.424;11.258;2022-07-29T00:58:01;95502.31;;;20.36;88.26
25526;BME280;13424;48.424;11.258;2022-07-29T01:00:29;95513.53;;;20.71;87.19
25526;BME280;13424;48.424;11.258;2022-07-29T01:02:56;95509.84;;;20.40;88.71
25526;BME280;13424;48.424;11.258;2022-07-29T01:05:25;95508.69;;;20.68;87.91
25526;BME280;13424;48.424;11.258;2022-07-29T01:07:54;95509.94;;;20.62;87.88
25526;BME280;13424;48.424;11.258;2022-07-29T01:10:21;95510.13;;;20.66;87.91
25526;BME280;13424;48.424;11.258;2022-07-29T01:12:51;95514.53;;;20.61;87.41
25526;BME280;13424;48.424;11.258;2022-07-29T01:15:19;95526.69;;;20.64;87.24
25526;BME280;13424;48.424;11.258;2022-07-29T01:18:18;95523.97;;;20.36;88.97
25526;BME280;13424;48.424;11.258;2022-07-29T01:21:18;95522.88;;;20.38;87.99
25526;BME280;13424;48.424;11.258;2022-07-29T01:29:39;95513.06;;;20.14;88.86
25526;BME280;13424;48.424;11.258;2022-07-29T01:32:22;95513.38;;;20.26;88.25
25526;BME280;13424;48.424;11.258;2022-07-29T01:40:48;95504.75;;;20.24;88.05
25526;BME280;13424;48.424;11.258;2022-07-29T01:43:20;95500.91;;;20.53;86.90
25526;BME280;13424;48.424;11.258;2022-07-29T01:46:01;95503.31;;;20.41;87.20
25526;BME280;13424;48.424;11.258;2022-07-29T01:48:54;95498.00;;;20.35;88.15
25526;BME280;13424;48.424;11.258;2022-07-29T01:51:46;95482.28;;;20.10;88.57
25526;BME280;13424;48.424;11.258;2022-07-29T01:54:43;95486.91;;;20.23;88.07
25526;BME280;13424;48.424;11.258;2022-07-29T01:57:17;95477.59;;;20.02;89.70
25526;BME280;13424;48.424;11.258;2022-07-29T01:59:48;95478.47;;;20.11;88.98
25526;BME280;13424;48.424;11.258;2022-07-29T02:02:18;95470.28;;;20.16;88.72
25526;BME280;13424;48.424;11.258;2022-07-29T02:04:47;95472.69;;;20.04;88.63
25526;BME280;13424;48.424;11.258;2022-07-29T02:07:20;95469.63;;;20.33;87.44
25526;BME280;13424;48.424;11.258;2022-07-29T02:09:50;95471.88;;;20.17;88.23
25526;BME280;13424;48.424;11.258;2022-07-29T02:12:18;95469.94;;;20.31;87.86
25526;BME280;13424;48.424;11.258;2022-07-29T02:14:51;95473.84;;;20.25;87.84
25526;BME280;13424;48.424;11.258;2022-07-29T02:17:33;95475.22;;;20.36;86.92
25526;BME280;13424;48.424;11.258;2022-07-29T02:20:03;95477.44;;;20.34;86.68
25526;BME280;13424;48.424;11.258;2022-07-29T02:22:34;95475.56;;;20.21;87.73
25526;BME280;13424;48.424;11.258;2022-07-29T02:25:01;95463.41;;;20.32;86.68
25526;BME280;13424;48.424;11.258;2022-07-29T02:27:28;95459.88;;;20.46;85.89
25526;BME280;13424;48.424;11.258;2022-07-29T02:29:57;95467.72;;;20.33;86.22
25526;BME280;13424;48.424;11.258;2022-07-29T02:32:26;95465.41;;;20.41;86.26
25526;BME280;13424;48.424;11.258;2022-07-29T02:34:53;95462.97;;;20.53;85.50
25526;BME280;13424;48.424;11.258;2022-07-29T02:37:20;95464.28;;;20.42;85.22
25526;BME280;13424;48.424;11.258;2022-07-29T02:39:48;95456.59;;;20.49;84.75
25526;BME280;13424;48.424;11.258;2022-07-29T02:42:18;95456.69;;;20.44;85.19
25526;BME280;13424;48.424;11.258;2022-07-29T02:44:47;95452.19;;;20.39;85.26
25526;BME280;13424;48.424;11.258;2022-07-29T02:47:27;95457.28;;;20.41;85.00
25526;BME280;13424;48.424;11.258;2022-07-29T02:50:37;95463.03;;;20.25;85.95
25526;BME280;13424;48.424;11.258;2022-07-29T02:53:17;95459.31;;;20.21;86.01
25526;BME280;13424;48.424;11.258;2022-07-29T02:55:54;95470.84;;;20.27;85.93
25526;BME280;13424;48.424;11.258;2022-07-29T02:58:52;95467.88;;;20.01;87.60
25526;BME280;13424;48.424;11.258;2022-07-29T03:01:23;95463.44;;;20.05;87.23
25526;BME280;13424;48.424;11.258;2022-07-29T03:03:53;95466.53;;;20.12;86.51
25526;BME280;13424;48.424;11.258;2022-07-29T03:07:25;95466.97;;;19.92;87.92
25526;BME280;13424;48.424;11.258;2022-07-29T03:09:52;95471.47;;;20.10;87.68
25526;BME280;13424;48.424;11.258;2022-07-29T03:12:19;95474.56;;;20.17;87.42
25526;BME280;13424;48.424;11.258;2022-07-29T03:14:46;95473.69;;;20.08;87.74
25526;BME280;13424;48.424;11.258;2022-07-29T03:17:13;95473.06;;;20.11;87.29
25526;BME280;13424;48.424;11.258;2022-07-29T03:19:39;95473.69;;;20.08;87.66
25526;BME280;13424;48.424;11.258;2022-07-29T03:22:06;95471.84;;;20.31;86.49
25526;BME280;13424;48.424;11.258;2022-07-29T03:24:36;95475.69;;;20.02;88.18
25526;BME280;13424;48.424;11.258;2022-07-29T03:27:04;95481.09;;;20.16;87.29
25526;BME280;13424;48.424;11.258;2022-07-29T03:29:31;95474.63;;;20.40;86.09
25526;BME280;13424;48.424;11.258;2022-07-29T03:31:57;95479.06;;;20.22;87.09
25526;BME280;13424;48.424;11.258;2022-07-29T03:34:23;95479.06;;;20.22;87.18
25526;BME280;13424;48.424;11.258;2022-07-29T03:36:50;95474.47;;;20.08;87.65
25526;BME280;13424;48.424;11.258;2022-07-29T03:39:23;95492.81;;;20.12;87.06
25526;BME280;13424;48.424;11.258;2022-07-29T03:41:55;95492.63;;;19.94;88.58
25526;BME280;13424;48.424;11.258;2022-07-29T03:44:24;95486.19;;;19.90;88.69
25526;BME280;13424;48.424;11.258;2022-07-29T03:46:52;95487.94;;;19.86;89.04
25526;BME280;13424;48.424;11.258;2022-07-29T03:49:20;95483.31;;;19.87;88.87
25526;BME280;13424;48.424;11.258;2022-07-29T03:51:47;95479.19;;;19.89;89.27
25526;BME280;13424;48.424;11.258;2022-07-29T03:54:13;95472.50;;;20.00;88.75
25526;BME280;13424;48.424;11.258;2022-07-29T03:56:44;95479.19;;;20.03;88.71
25526;BME280;13424;48.424;11.258;2022-07-29T03:59:15;95471.88;;;20.17;87.64
25526;BME280;13424;48.424;11.258;2022-07-29T04:01:41;95473.13;;;20.33;86.87
25526;BME280;13424;48.424;11.258;2022-07-29T04:04:08;95477.06;;;20.27;86.12
25526;BME280;13424;48.424;11.258;2022-07-29T04:06:42;95475.44;;;20.40;84.61
25526;BME280;13424;48.424;11.258;2022-07-29T04:09:10;95471.81;;;20.45;84.91
25526;BME280;13424;48.424;11.258;2022-07-29T04:11:39;95479.31;;;20.61;82.98
25526;BME280;13424;48.424;11.258;2022-07-29T04:14:05;95483.44;;;20.59;82.81
25526;BME280;13424;48.424;11.258;2022-07-29T04:16:31;95484.28;;;20.32;81.78
25526;BME280;13424;48.424;11.258;2022-07-29T04:18:58;95492.09;;;19.18;87.77
25526;BME280;13424;48.424;11.258;2022-07-29T04:25:50;95505.53;;;18.91;91.94
25526;BME280;13424;48.424;11.258;2022-07-29T04:28:15;95510.63;;;19.25;88.29
25526;BME280;13424;48.424;11.258;2022-07-29T04:30:41;95511.38;;;19.77;84.42
25526;BME280;13424;48.424;11.258;2022-07-29T04:33:08;95500.63;;;19.25;88.32
25526;BME280;13424;48.424;11.258;2022-07-29T04:35:36;95519.19;;;19.78;87.22
25526;BME280;13424;48.424;11.258;2022-07-29T04:38:04;95509.78;;;20.03;85.99
25526;BME280;13424;48.424;11.258;2022-07-29T04:40:31;95510.88;;;20.02;86.13
25526;BME280;13424;48.424;11.258;2022-07-29T04:46:55;95520.69;;;19.98;86.42
25526;BME280;13424;48.424;11.258;2022-07-29T04:49:21;95525.31;;;19.98;86.32
25526;BME280;13424;48.424;11.258;2022-07-29T04:51:46;95524.09;;;20.04;86.58
25526;BME280;13424;48.424;11.258;2022-07-29T04:54:12;95520.31;;;19.91;87.16
25526;BME280;13424;48.424;11.258;2022-07-29T04:56:38;95521.72;;;20.16;85.98
25526;BME280;13424;48.424;11.258;2022-07-29T04:59:04;95533.66;;;20.15;85.93
25526;BME280;13424;48.424;11.258;2022-07-29T05:01:30;95521.41;;;20.31;86.49
25526;BME280;13424;48.424;11.258;2022-07-29T05:03:56;95525.97;;;20.72;84.71
25526;BME280;13424;48.424;11.258;2022-07-29T05:06:22;95530.16;;;20.78;84.95
25526;BME280;13424;48.424;11.258;2022-07-29T05:08:48;95531.25;;;20.77;85.04
25526;BME280;13424;48.424;11.258;2022-07-29T05:11:14;95536.94;;;20.89;85.00
25526;BME280;13424;48.424;11.258;2022-07-29T05:13:40;95546.63;;;20.68;84.88
25526;BME280;13424;48.424;11.258;2022-07-29T05:16:08;95539.59;;;20.67;85.49
25526;BME280;13424;48.424;11.258;2022-07-29T05:18:34;95542.19;;;20.86;85.09
25526;BME280;13424;48.424;11.258;2022-07-29T05:21:00;95536.75;;;22.07;80.36
25526;BME280;13424;48.424;11.258;2022-07-29T05:23:26;95547.03;;;23.71;74.78
25526;BME280;13424;48.424;11.258;2022-07-29T05:25:53;95543.03;;;23.42;74.24
25526;BME280;13424;48.424;11.258;2022-07-29T05:28:19;95542.09;;;23.12;75.17
25526;BME280;13424;48.424;11.258;2022-07-29T05:30:45;95546.72;;;22.86;75.46
25526;BME280;13424;48.424;11.258;2022-07-29T05:33:11;95552.97;;;22.20;78.18
25526;BME280;13424;48.424;11.258;2022-07-29T05:35:37;95550.84;;;22.17;78.33
25526;BME280;13424;48.424;11.258;2022-07-29T05:38:04;95550.63;;;22.36;78.61
25526;BME280;13424;48.424;11.258;2022-07-29T05:40:30;95551.63;;;22.66;75.86
25526;BME280;13424;48.424;11.258;2022-07-29T05:42:56;95552.56;;;24.30;70.89
25526;BME280;13424;48.424;11.258;2022-07-29T05:45:22;95547.13;;;24.89;68.33
25526;BME280;13424;48.424;11.258;2022-07-29T05:47:50;95550.19;;;24.28;70.35
25526;BME280;13424;48.424;11.258;2022-07-29T05:50:16;95544.09;;;23.76;71.88
25526;BME280;13424;48.424;11.258;2022-07-29T05:52:41;95549.09;;;23.56;72.67
25526;BME280;13424;48.424;11.258;2022-07-29T05:55:08;95540.81;;;23.09;73.91
25526;BME280;13424;48.424;11.258;2022-07-29T05:57:34;95545.25;;;22.71;75.79
25526;BME280;13424;48.424;11.258;2022-07-29T06:00:00;95551.16;;;22.81;76.38
25526;BME280;13424;48.424;11.258;2022-07-29T06:02:26;95536.19;;;22.93;75.19
25526;BME280;13424;48.424;11.258;2022-07-29T06:04:52;95542.38;;;22.76;75.01
25526;BME280;13424;48.424;11.258;2022-07-29T06:07:19;95541.13;;;22.91;76.34
25526;BME280;13424;48.424;11.258;2022-07-29T06:09:45;95540.03;;;23.18;74.97
25526;BME280;13424;48.424;11.258;2022-07-29T06:12:11;95537.94;;;23.32;73.26
25526;BME280;13424;48.424;11.258;2022-07-29T06:14:37;95543.69;;;23.13;74.29
25526;BME280;13424;48.424;11.258;2022-07-29T06:17:04;95541.47;;;23.24;74.32
25526;BME280;13424;48.424;11.258;2022-07-29T06:19:31;95551.50;;;23.66;72.44
25526;BME280;13424;48.424;11.258;2022-07-29T06:21:59;95544.78;;;23.64;72.74
25526;BME280;13424;48.424;11.258;2022-07-29T06:24:25;95548.91;;;23.87;72.05
25526;BME280;13424;48.424;11.258;2022-07-29T06:26:51;95539.75;;;23.83;70.58
25526;BME280;13424;48.424;11.258;2022-07-29T06:29:17;95545.25;;;23.57;71.14
25526;BME280;13424;48.424;11.258;2022-07-29T06:31:43;95546.16;;;23.96;70.33
25526;BME280;13424;48.424;11.258;2022-07-29T06:34:09;95545.09;;;24.09;71.03
25526;BME280;13424;48.424;11.258;2022-07-29T06:36:36;95553.41;;;24.21;70.14
25526;BME280;13424;48.424;11.258;2022-07-29T06:39:07;95556.97;;;24.13;70.77
25526;BME280;13424;48.424;11.258;2022-07-29T06:41:34;95559.00;;;23.70;72.68
25526;BME280;13424;48.424;11.258;2022-07-29T06:44:08;95558.53;;;23.59;72.93
25526;BME280;13424;48.424;11.258;2022-07-29T06:46:34;95561.84;;;23.90;72.71
25526;BME280;13424;48.424;11.258;2022-07-29T06:49:00;95566.22;;;24.21;71.73
25526;BME280;13424;48.424;11.258;2022-07-29T06:51:27;95566.28;;;24.12;71.83
25526;BME280;13424;48.424;11.258;2022-07-29T06:53:54;95567.72;;;24.48;72.80
25526;BME280;13424;48.424;11.258;2022-07-29T06:56:20;95563.84;;;24.58;70.40
25526;BME280;13424;48.424;11.258;2022-07-29T06:58:46;95567.09;;;24.51;71.34
25526;BME280;13424;48.424;11.258;2022-07-29T07:05:14;95569.53;;;24.73;69.80
25526;BME280;13424;48.424;11.258;2022-07-29T07:07:40;95577.22;;;24.71;68.51
25526;BME280;13424;48.424;11.258;2022-07-29T07:10:07;95571.06;;;25.13;68.82
25526;BME280;13424;48.424;11.258;2022-07-29T07:12:34;95574.31;;;24.76;69.30
25526;BME280;13424;48.424;11.258;2022-07-29T07:15:00;95576.06;;;25.02;69.75
25526;BME280;13424;48.424;11.258;2022-07-29T07:17:26;95586.75;;;25.37;68.60
25526;BME280;13424;48.424;11.258;2022-07-29T07:19:52;95583.91;;;25.12;69.99
25526;BME280;13424;48.424;11.258;2022-07-29T07:22:17;95590.09;;;25.21;69.13
25526;BME280;13424;48.424;11.258;2022-07-29T07:24:44;95582.19;;;24.99;69.66
25526;BME280;13424;48.424;11.258;2022-07-29T07:27:11;95575.56;;;25.29;67.23
25526;BME280;13424;48.424;11.258;2022-07-29T07:29:37;95582.09;;;26.03;65.84
25526;BME280;13424;48.424;11.258;2022-07-29T07:32:08;95580.63;;;25.94;65.08
25526;BME280;13424;48.424;11.258;2022-07-29T07:34:34;95585.84;;;26.44;64.68
25526;BME280;13424;48.424;11.258;2022-07-29T07:37:01;95579.78;;;26.38;63.49
25526;BME280;13424;48.424;11.258;2022-07-29T07:39:27;95584.50;;;26.05;65.75
25526;BME280;13424;48.424;11.258;2022-07-29T07:41:53;95581.50;;;25.85;65.20
25526;BME280;13424;48.424;11.258;2022-07-29T07:44:19;95580.03;;;25.88;65.91
25526;BME280;13424;48.424;11.258;2022-07-29T07:46:44;95577.78;;;26.14;64.45
25526;BME280;13424;48.424;11.258;2022-07-29T07:49:11;95580.44;;;26.35;60.76
25526;BME280;13424;48.424;11.258;2022-07-29T07:51:37;95580.31;;;26.20;65.15
25526;BME280;13424;48.424;11.258;2022-07-29T07:54:04;95577.72;;;26.35;64.72
25526;BME280;13424;48.424;11.258;2022-07-29T07:56:30;95569.50;;;26.35;63.17
25526;BME280;13424;48.424;11.258;2022-07-29T07:58:56;95572.94;;;26.81;60.69
25526;BME280;13424;48.424;11.258;2022-07-29T08:01:22;95570.41;;;27.00;59.70
25526;BME280;13424;48.424;11.258;2022-07-29T08:03:49;95567.72;;;26.64;59.67
25526;BME280;13424;48.424;11.258;2022-07-29T08:06:17;95572.50;;;26.67;61.83
25526;BME280;13424;48.424;11.258;2022-07-29T08:08:43;95560.25;;;27.01;60.21
25526;BME280;13424;48.424;11.258;2022-07-29T08:11:09;95568.81;;;27.12;60.59
25526;BME280;13424;48.424;11.258;2022-07-29T08:13:35;95567.69;;;26.88;61.31
25526;BME280;13424;48.424;11.258;2022-07-29T08:16:02;95573.84;;;26.97;61.55
25526;BME280;13424;48.424;11.258;2022-07-29T08:18:39;95577.72;;;27.09;59.83
25526;BME280;13424;48.424;11.258;2022-07-29T08:21:06;95582.22;;;27.41;60.05
25526;BME280;13424;48.424;11.258;2022-07-29T08:23:32;95584.00;;;27.49;59.23
25526;BME280;13424;48.424;11.258;2022-07-29T08:26:07;95583.06;;;27.58;58.82
25526;BME280;13424;48.424;11.258;2022-07-29T08:28:41;95573.94;;;28.41;57.82
25526;BME280;13424;48.424;11.258;2022-07-29T08:31:10;95569.75;;;28.16;60.19
25526;BME280;13424;48.424;11.258;2022-07-29T08:33:36;95572.59;;;28.35;57.91
25526;BME280;13424;48.424;11.258;2022-07-29T08:36:02;95567.41;;;28.61;54.76
25526;BME280;13424;48.424;11.258;2022-07-29T08:38:29;95573.50;;;28.39;56.72
25526;BME280;13424;48.424;11.258;2022-07-29T08:40:55;95575.84;;;28.09;56.83
25526;BME280;13424;48.424;11.258;2022-07-29T08:43:21;95579.13;;;28.78;55.01
25526;BME280;13424;48.424;11.258;2022-07-29T08:45:50;95579.66;;;28.04;57.66
25526;BME280;13424;48.424;11.258;2022-07-29T08:48:21;95586.22;;;28.79;55.05
25526;BME280;13424;48.424;11.258;2022-07-29T08:50:53;95576.09;;;28.20;56.60
25526;BME280;13424;48.424;11.258;2022-07-29T08:53:21;95582.31;;;28.17;58.49
25526;BME280;13424;48.424;11.258;2022-07-29T08:55:50;95585.03;;;28.45;56.57
25526;BME280;13424;48.424;11.258;2022-07-29T08:58:18;95587.25;;;28.27;57.17
25526;BME280;13424;48.424;11.258;2022-07-29T09:00:55;95592.88;;;28.94;57.89
25526;BME280;13424;48.424;11.258;2022-07-29T09:03:25;95592.59;;;28.51;57.28
25526;BME280;13424;48.424;11.258;2022-07-29T09:05:53;95589.50;;;28.69;57.09
25526;BME280;13424;48.424;11.258;2022-07-29T09:08:19;95587.44;;;28.97;55.29
25526;BME280;13424;48.424;11.258;2022-07-29T09:10:45;95583.94;;;28.33;57.83
25526;BME280;13424;48.424;11.258;2022-07-29T09:13:11;95580.59;;;28.40;58.08
25526;BME280;13424;48.424;11.258;2022-07-29T09:15:37;95589.84;;;28.35;57.14
25526;BME280;13424;48.424;11.258;2022-07-29T09:18:03;95591.97;;;28.58;57.00
25526;BME280;13424;48.424;11.258;2022-07-29T09:20:29;95591.13;;;28.38;58.30
25526;BME280;13424;48.424;11.258;2022-07-29T09:23:15;95585.66;;;28.10;57.53
25526;BME280;13424;48.424;11.258;2022-07-29T09:25:42;95586.28;;;28.19;58.31
25526;BME280;13424;48.424;11.258;2022-07-29T09:28:17;95583.50;;;28.31;57.48
25526;BME280;13424;48.424;11.258;2022-07-29T09:30:58;95583.47;;;28.16;59.02
25526;BME280;13424;48.424;11.258;2022-07-29T09:33:32;95581.69;;;28.23;58.69
25526;BME280;13424;48.424;11.258;2022-07-29T09:36:10;95577.06;;;27.96;59.20
25526;BME280;13424;48.424;11.258;2022-07-29T09:38:37;95576.97;;;27.92;59.41
25526;BME280;13424;48.424;11.258;2022-07-29T09:41:05;95583.81;;;27.98;59.81
25526;BME280;13424;48.424;11.258;2022-07-29T09:43:32;95583.53;;;28.03;59.80
25526;BME280;13424;48.424;11.258;2022-07-29T09:46:13;95583.56;;;27.75;60.10
25526;BME280;13424;48.424;11.258;2022-07-29T09:48:39;95588.19;;;28.31;59.48
25526;BME280;13424;48.424;11.258;2022-07-29T09:51:05;95585.59;;;29.01;59.08
25526;BME280;13424;48.424;11.258;2022-07-29T09:53:41;95593.53;;;29.06;56.96
25526;BME280;13424;48.424;11.258;2022-07-29T09:56:08;95584.06;;;29.04;57.78
25526;BME280;13424;48.424;11.258;2022-07-29T09:58:36;95579.75;;;28.71;57.67
25526;BME280;13424;48.424;11.258;2022-07-29T10:01:02;95579.38;;;29.04;56.68
25526;BME280;13424;48.424;11.258;2022-07-29T10:03:29;95576.63;;;29.04;57.06
25526;BME280;13424;48.424;11.258;2022-07-29T10:06:24;95575.47;;;28.89;57.85
25526;BME280;13424;48.424;11.258;2022-07-29T10:08:51;95587.19;;;29.22;57.29
25526;BME280;13424;48.424;11.258;2022-07-29T10:11:19;95566.59;;;29.12;56.10
25526;BME280;13424;48.424;11.258;2022-07-29T10:13:48;95578.25;;;28.74;56.65
25526;BME280;13424;48.424;11.258;2022-07-29T10:16:16;95577.47;;;29.43;57.70
25526;BME280;13424;48.424;11.258;2022-07-29T10:18:43;95580.31;;;29.66;56.66
25526;BME280;13424;48.424;11.258;2022-07-29T10:21:09;95575.31;;;29.33;55.10
25526;BME280;13424;48.424;11.258;2022-07-29T10:23:37;95581.63;;;29.53;54.24
25526;BME280;13424;48.424;11.258;2022-07-29T10:26:04;95574.78;;;30.05;54.99
25526;BME280;13424;48.424;11.258;2022-07-29T10:28:31;95573.50;;;29.41;54.03
25526;BME280;13424;48.424;11.258;2022-07-29T10:31:06;95578.13;;;29.75;54.54
25526;BME280;13424;48.424;11.258;2022-07-29T10:33:59;95566.53;;;29.86;55.73
25526;BME280;13424;48.424;11.258;2022-07-29T10:43:28;95559.69;;;29.18;55.54
25526;BME280;13424;48.424;11.258;2022-07-29T10:46:00;95568.03;;;29.06;54.50
25526;BME280;13424;48.424;11.258;2022-07-29T10:48:26;95563.44;;;29.29;54.14
25526;BME280;13424;48.424;11.258;2022-07-29T10:51:04;95562.06;;;29.19;56.00
25526;BME280;13424;48.424;11.258;2022-07-29T10:53:51;95569.06;;;28.50;55.26
25526;BME280;13424;48.424;11.258;2022-07-29T10:56:31;95566.31;;;28.66;55.56
25526;BME280;13424;48.424;11.258;2022-07-29T11:01:49;95567.22;;;29.05;55.59
25526;BME280;13424;48.424;11.258;2022-07-29T11:04:22;95565.16;;;29.18;53.67
25526;BME280;13424;48.424;11.258;2022-07-29T11:07:08;95562.84;;;28.85;56.43
25526;BME280;13424;48.424;11.258;2022-07-29T11:09:35;95562.47;;;29.22;55.02
25526;BME280;13424;48.424;11.258;2022-07-29T11:12:01;95560.19;;;29.43;54.91
25526;BME280;13424;48.424;11.258;2022-07-29T11:14:57;95545.16;;;29.75;54.90
25526;BME280;13424;48.424;11.258;2022-07-29T11:17:25;95549.66;;;30.07;54.15
25526;BME280;13424;48.424;11.258;2022-07-29T11:19:51;95559.53;;;30.30;53.50
25526;BME280;13424;48.424;11.258;2022-07-29T11:22:38;95553.47;;;29.40;55.37
25526;BME280;13424;48.424;11.258;2022-07-29T11:25:18;95553.06;;;30.19;52.32
25526;BME280;13424;48.424;11.258;2022-07-29T11:27:45;95545.44;;;30.58;53.84
25526;BME280;13424;48.424;11.258;2022-07-29T11:30:11;95550.75;;;30.48;53.63
25526;BME280;13424;48.424;11.258;2022-07-29T11:32:41;95558.97;;;30.44;52.69
25526;BME280;13424;48.424;11.258;2022-07-29T11:35:21;95546.97;;;30.56;51.67
25526;BME280;13424;48.424;11.258;2022-07-29T11:38:25;95553.19;;;30.26;53.52
25526;BME280;13424;48.424;11.258;2022-07-29T11:44:09;95546.47;;;29.62;53.23
25526;BME280;13424;48.424;11.258;2022-07-29T11:46:49;95544.06;;;30.45;51.23
25526;BME280;13424;48.424;11.258;2022-07-29T11:49:24;95537.59;;;30.34;49.87
25526;BME280;13424;48.424;11.258;2022-07-29T11:51:56;95539.03;;;30.51;49.88
25526;BME280;13424;48.424;11.258;2022-07-29T11:54:33;95531.72;;;30.36;50.98
25526;BME280;13424;48.424;11.258;2022-07-29T11:57:00;95529.53;;;30.71;52.26
25526;BME280;13424;48.424;11.258;2022-07-29T11:59:26;95534.00;;;30.56;51.63
25526;BME280;13424;48.424;11.258;2022-07-29T12:01:55;95539.94;;;30.81;47.90
25526;BME280;13424;48.424;11.258;2022-07-29T12:04:21;95525.41;;;31.41;45.36
25526;BME280;13424;48.424;11.258;2022-07-29T12:06:54;95537.25;;;30.62;47.25
25526;BME280;13424;48.424;11.258;2022-07-29T12:09:22;95534.22;;;30.21;47.17
25526;BME280;13424;48.424;11.258;2022-07-29T12:11:56;95523.59;;;31.22;48.07
25526;BME280;13424;48.424;11.258;2022-07-29T12:14:33;95520.78;;;31.49;45.26
25526;BME280;13424;48.424;11.258;2022-07-29T12:17:00;95516.34;;;32.15;45.50
25526;BME280;13424;48.424;11.258;2022-07-29T12:19:26;95519.69;;;31.57;45.37
25526;BME280;13424;48.424;11.258;2022-07-29T12:21:56;95510.03;;;32.14;46.98
25526;BME280;13424;48.424;11.258;2022-07-29T12:24:24;95515.75;;;31.58;45.96
25526;BME280;13424;48.424;11.258;2022-07-29T12:26:57;95509.19;;;31.06;44.36
25526;BME280;13424;48.424;11.258;2022-07-29T12:29:24;95514.22;;;30.24;45.04
25526;BME280;13424;48.424;11.258;2022-07-29T12:31:53;95513.13;;;30.52;47.53
25526;BME280;13424;48.424;11.258;2022-07-29T12:35:24;95506.56;;;31.17;46.55
25526;BME280;13424;48.424;11.258;2022-07-29T12:37:50;95507.56;;;31.65;46.06
25526;BME280;13424;48.424;11.258;2022-07-29T12:40:18;95500.22;;;32.17;45.60
25526;BME280;13424;48.424;11.258;2022-07-29T12:43:25;95497.66;;;32.35;44.90
25526;BME280;13424;48.424;11.258;2022-07-29T12:45:54;95494.41;;;32.29;44.25
25526;BME280;13424;48.424;11.258;2022-07-29T12:48:39;95507.44;;;32.84;43.15
25526;BME280;13424;48.424;11.258;2022-07-29T12:51:08;95505.28;;;32.11;44.05
25526;BME280;13424;48.424;11.258;2022-07-29T12:53:36;95492.88;;;31.91;42.65
25526;BME280;13424;48.424;11.258;2022-07-29T12:56:04;95490.63;;;31.63;43.86
25526;BME280;13424;48.424;11.258;2022-07-29T12:58:39;95498.81;;;31.22;44.22
25526;BME280;13424;48.424;11.258;2022-07-29T13:01:15;95488.50;;;31.19;44.35
25526;BME280;13424;48.424;11.258;2022-07-29T13:04:01;95489.06;;;31.02;45.71
25526;BME280;13424;48.424;11.258;2022-07-29T13:06:35;95485.06;;;30.43;46.71
25526;BME280;13424;48.424;11.258;2022-07-29T13:09:11;95494.28;;;30.80;47.23
25526;BME280;13424;48.424;11.258;2022-07-29T13:17:54;95491.28;;;29.94;44.04
25526;BME280;13424;48.424;11.258;2022-07-29T13:20:26;95500.06;;;29.57;43.88
25526;BME280;13424;48.424;11.258;2022-07-29T13:23:00;95495.84;;;29.44;43.77
25526;BME280;13424;48.424;11.258;2022-07-29T13:25:31;95497.28;;;28.99;44.19
25526;BME280;13424;48.424;11.258;2022-07-29T13:27:59;95497.59;;;29.13;43.05
25526;BME280;13424;48.424;11.258;2022-07-29T13:30:25;95493.66;;;28.76;43.91
25526;BME280;13424;48.424;11.258;2022-07-29T13:32:52;95498.09;;;28.64;44.17
25526;BME280;13424;48.424;11.258;2022-07-29T13:35:19;95505.72;;;28.55;44.67
25526;BME280;13424;48.424;11.258;2022-07-29T13:37:45;95499.78;;;28.69;45.26
25526;BME280;13424;48.424;11.258;2022-07-29T13:40:13;95497.75;;;28.50;46.02
25526;BME280;13424;48.424;11.258;2022-07-29T13:42:40;95493.56;;;28.37;47.03
25526;BME280;13424;48.424;11.258;2022-07-29T13:45:09;95488.75;;;28.34;46.13
25526;BME280;13424;48.424;11.258;2022-07-29T13:47:37;95493.38;;;28.30;46.68
25526;BME280;13424;48.424;11.258;2022-07-29T13:50:06;95496.72;;;28.07;47.61